createdAt,value
2017-07-19T00:00:36.898Z,1.73
2017-07-19T00:03:04.391Z,1.87
2017-07-19T00:05:31.902Z,2.50
2017-07-19T00:07:59.399Z,1.33
2017-07-19T00:10:26.907Z,2.70
2017-07-19T00:12:54.429Z,2.47
2017-07-19T00:15:22.714Z,1.77
2017-07-19T00:17:50.974Z,1.63
2017-07-19T00:20:18.470Z,1.87
2017-07-19T00:22:45.984Z,2.20
2017-07-19T00:25:13.483Z,4.10
2017-07-19T00:27:40.998Z,1.87
2017-07-19T00:30:08.495Z,1.53
2017-07-19T00:32:36.011Z,1.47
2017-07-19T00:35:03.509Z,1.50
2017-07-19T00:37:31.018Z,1.60
2017-07-19T00:39:58.518Z,1.60
2017-07-19T00:42:26.031Z,1.30
2017-07-19T00:44:53.525Z,2.10
2017-07-19T00:47:21.815Z,2.70
2017-07-19T00:49:49.311Z,1.77
2017-07-19T00:52:16.831Z,1.63
2017-07-19T00:54:44.327Z,2.00
2017-07-19T00:57:11.838Z,1.40
2017-07-19T00:59:40.104Z,1.60
2017-07-19T01:02:07.622Z,2.07
2017-07-19T01:04:35.122Z,1.20
2017-07-19T01:07:02.617Z,2.17
2017-07-19T01:09:30.135Z,0.90
2017-07-19T01:11:57.632Z,1.77
2017-07-19T01:14:25.144Z,2.07
2017-07-19T01:16:52.648Z,4.10
2017-07-19T01:19:20.163Z,1.80
2017-07-19T01:21:47.667Z,2.07
2017-07-19T01:24:15.190Z,1.80
2017-07-19T01:26:42.687Z,1.47
2017-07-19T01:29:10.203Z,1.83
2017-07-19T01:31:37.699Z,2.37
2017-07-19T01:34:05.211Z,1.40
2017-07-19T01:36:32.704Z,1.40
2017-07-19T01:39:00.222Z,1.50
2017-07-19T01:41:27.719Z,2.83
2017-07-19T01:43:55.226Z,9.17
2017-07-19T01:46:22.719Z,1.60
2017-07-19T01:48:50.999Z,1.60
2017-07-19T01:51:18.494Z,1.80
2017-07-19T01:53:46.007Z,2.70
2017-07-19T01:56:13.511Z,1.70
2017-07-19T01:58:41.026Z,1.40
2017-07-19T02:01:08.533Z,3.20
2017-07-19T02:03:36.047Z,1.57
2017-07-19T02:06:03.567Z,5.00
2017-07-19T02:08:31.062Z,1.37
2017-07-19T02:10:58.575Z,3.30
2017-07-19T02:13:26.071Z,4.33
2017-07-19T02:15:53.583Z,3.93
2017-07-19T02:18:21.091Z,1.47
2017-07-19T02:20:49.367Z,1.17
2017-07-19T02:23:17.631Z,1.50
2017-07-19T02:25:45.911Z,1.30
2017-07-19T02:28:13.411Z,2.30
2017-07-19T02:30:40.930Z,1.20
2017-07-19T02:33:08.436Z,1.20
2017-07-19T02:35:35.951Z,3.03
2017-07-19T02:38:04.225Z,1.03
2017-07-19T02:40:32.508Z,1.40
2017-07-19T02:43:00.008Z,1.10
2017-07-19T02:45:27.519Z,2.50
2017-07-19T02:47:55.782Z,1.40
2017-07-19T02:50:24.059Z,1.20
2017-07-19T02:52:51.562Z,4.27
2017-07-19T02:55:19.087Z,1.70
2017-07-19T02:57:47.347Z,1.53
2017-07-19T03:00:14.847Z,2.17
2017-07-19T03:02:42.359Z,1.30
2017-07-19T03:05:09.858Z,1.10
2017-07-19T03:07:37.379Z,2.97
2017-07-19T03:10:04.880Z,2.03
2017-07-19T03:12:32.390Z,1.50
2017-07-19T03:14:59.887Z,0.80
2017-07-19T03:17:27.399Z,1.73
2017-07-19T03:19:54.897Z,1.20
2017-07-19T03:22:34.207Z,1.30
2017-07-19T03:25:02.471Z,1.13
2017-07-19T03:27:29.988Z,3.30
2017-07-19T03:29:57.482Z,1.80
2017-07-19T03:32:25.213Z,4.03
2017-07-19T03:34:52.747Z,1.30
2017-07-19T03:37:20.260Z,4.40
2017-07-19T03:39:47.762Z,1.13
2017-07-19T03:42:15.287Z,2.30
2017-07-19T03:44:42.791Z,1.80
2017-07-19T03:47:10.307Z,1.30
2017-07-19T03:49:37.817Z,1.97
2017-07-19T03:52:05.326Z,6.07
2017-07-19T03:54:33.591Z,1.87
2017-07-19T03:57:01.107Z,4.43
2017-07-19T03:59:28.603Z,5.60
2017-07-19T04:01:56.098Z,4.80
2017-07-19T04:04:23.616Z,1.40
2017-07-19T04:06:51.110Z,2.60
2017-07-19T04:09:19.389Z,2.07
2017-07-19T04:11:46.882Z,6.47
2017-07-19T04:14:14.390Z,2.40
2017-07-19T04:16:41.892Z,1.50
2017-07-19T04:19:09.407Z,3.00
2017-07-19T04:21:36.908Z,5.90
2017-07-19T04:24:04.418Z,1.50
2017-07-19T04:26:32.685Z,1.60
2017-07-19T04:29:00.198Z,2.53
2017-07-19T04:31:27.696Z,2.20
2017-07-19T04:33:55.208Z,2.80
2017-07-19T04:36:22.707Z,2.77
2017-07-19T04:38:50.219Z,1.50
2017-07-19T04:41:17.716Z,2.30
2017-07-19T04:43:45.232Z,1.53
2017-07-19T04:46:12.754Z,1.87
2017-07-19T04:48:40.279Z,1.87
2017-07-19T04:51:07.786Z,2.50
2017-07-19T04:53:36.079Z,4.27
2017-07-19T04:56:03.577Z,2.80
2017-07-19T04:58:31.074Z,1.80
2017-07-19T05:00:58.591Z,3.63
2017-07-19T05:03:26.087Z,3.07
2017-07-19T05:05:53.611Z,4.30
2017-07-19T05:08:21.102Z,2.27
2017-07-19T05:10:48.619Z,1.70
2017-07-19T05:13:16.110Z,2.00
2017-07-19T05:15:44.392Z,2.13
2017-07-19T05:18:11.886Z,2.90
2017-07-19T05:20:39.398Z,5.47
2017-07-19T05:23:06.891Z,3.40
2017-07-19T05:25:34.407Z,2.17
2017-07-19T05:28:01.899Z,2.60
2017-07-19T05:30:29.410Z,1.97
2017-07-19T05:32:56.911Z,4.27
2017-07-19T05:35:24.426Z,2.60
2017-07-19T05:37:51.918Z,1.73
2017-07-19T05:40:19.441Z,2.47
2017-07-19T05:42:46.934Z,2.30
2017-07-19T05:45:14.455Z,2.80
2017-07-19T05:47:41.958Z,2.07
2017-07-19T05:50:09.459Z,3.47
2017-07-19T05:52:36.983Z,1.80
2017-07-19T05:55:04.487Z,2.00
2017-07-19T05:57:32.002Z,2.50
2017-07-19T05:59:59.498Z,2.50
2017-07-19T06:02:27.013Z,3.10
2017-07-19T06:04:54.514Z,2.87
2017-07-19T06:07:22.031Z,2.50
2017-07-19T06:09:49.541Z,13.17
2017-07-19T06:12:17.060Z,6.93
2017-07-19T06:14:44.559Z,9.63
2017-07-19T06:17:12.072Z,5.27
2017-07-19T06:19:40.399Z,6.23
2017-07-19T06:22:07.911Z,2.27
2017-07-19T06:24:35.415Z,3.37
2017-07-19T06:27:02.932Z,2.77
2017-07-19T06:29:30.432Z,4.80
2017-07-19T06:31:57.948Z,4.20
2017-07-19T06:34:25.450Z,2.80
2017-07-19T06:36:52.968Z,2.57
2017-07-19T06:39:20.458Z,2.40
2017-07-19T06:41:47.955Z,3.90
2017-07-19T06:44:16.231Z,2.13
2017-07-19T06:46:43.734Z,2.90
2017-07-19T06:49:11.246Z,2.40
2017-07-19T06:51:38.754Z,2.60
2017-07-19T06:54:06.271Z,5.43
2017-07-19T06:56:33.771Z,2.40
2017-07-19T06:59:01.283Z,2.40
2017-07-19T07:01:28.783Z,4.40
2017-07-19T07:03:56.299Z,4.30
2017-07-19T07:06:23.803Z,4.97
2017-07-19T07:08:51.323Z,3.37
2017-07-19T07:11:18.824Z,2.83
2017-07-19T07:13:46.339Z,1.77
2017-07-19T07:16:13.842Z,2.43
2017-07-19T07:18:41.360Z,2.60
2017-07-19T07:21:08.867Z,2.13
2017-07-19T07:23:36.394Z,6.20
2017-07-19T07:26:03.899Z,3.80
2017-07-19T07:28:32.171Z,3.37
2017-07-19T07:30:59.687Z,5.77
2017-07-19T07:33:27.183Z,3.10
2017-07-19T07:35:54.699Z,2.97
2017-07-19T07:38:22.197Z,2.27
2017-07-19T07:40:49.719Z,3.20
2017-07-19T07:43:17.215Z,2.47
2017-07-19T07:45:44.727Z,2.40
2017-07-19T07:48:12.223Z,3.57
2017-07-19T07:50:39.736Z,2.87
2017-07-19T07:53:07.234Z,2.40
2017-07-19T07:55:34.747Z,4.57
2017-07-19T07:58:02.256Z,3.10
2017-07-19T08:00:29.767Z,2.50
2017-07-19T08:02:57.267Z,3.80
2017-07-19T08:05:24.854Z,4.83
2017-07-19T08:07:53.116Z,2.23
2017-07-19T08:10:20.634Z,5.90
2017-07-19T08:12:48.131Z,2.50
2017-07-19T08:15:15.655Z,2.83
2017-07-19T08:17:43.154Z,2.50
2017-07-19T08:20:10.651Z,2.60
2017-07-19T08:22:38.172Z,3.50
2017-07-19T08:25:06.441Z,2.70
2017-07-19T08:27:33.962Z,3.00
2017-07-19T08:30:01.458Z,2.40
2017-07-19T08:32:28.974Z,2.10
2017-07-19T08:34:56.466Z,3.50
2017-07-19T08:37:23.985Z,3.17
2017-07-19T08:39:51.482Z,4.83
2017-07-19T08:42:19.008Z,2.87
2017-07-19T08:44:46.511Z,2.50
2017-07-19T08:47:14.027Z,3.13
2017-07-19T08:49:41.527Z,4.47
2017-07-19T08:52:09.047Z,6.10
2017-07-19T08:54:36.547Z,2.33
2017-07-19T08:57:04.831Z,2.60
2017-07-19T08:59:33.103Z,2.53
2017-07-19T09:02:01.387Z,2.50
2017-07-19T09:04:28.886Z,2.87
2017-07-19T09:06:56.402Z,2.93
2017-07-19T09:09:24.666Z,2.50
2017-07-19T09:11:52.187Z,3.20
2017-07-19T09:14:19.687Z,3.63
2017-07-19T09:16:47.950Z,3.20
2017-07-19T09:19:15.480Z,3.20
2017-07-19T09:21:42.983Z,2.83
2017-07-19T09:24:10.506Z,7.10
2017-07-19T09:26:38.001Z,3.67
2017-07-19T09:29:06.279Z,4.00
2017-07-19T09:31:34.546Z,3.20
2017-07-19T09:34:02.830Z,4.23
2017-07-19T09:36:31.105Z,3.83
2017-07-19T09:38:58.622Z,3.50
2017-07-19T09:41:26.114Z,2.97
2017-07-19T09:43:54.398Z,2.90
2017-07-19T09:46:22.660Z,3.57
2017-07-19T09:48:50.178Z,4.17
2017-07-19T09:51:17.671Z,3.63
2017-07-19T09:53:45.193Z,5.13
2017-07-19T09:56:12.690Z,3.33
2017-07-19T09:58:40.203Z,3.50
2017-07-19T10:01:07.703Z,3.93
2017-07-19T10:03:35.219Z,3.30
2017-07-19T10:06:02.719Z,3.43
2017-07-19T10:08:30.215Z,4.03
2017-07-19T10:10:57.739Z,3.27
2017-07-19T10:13:26.011Z,3.50
2017-07-19T10:15:53.522Z,3.07
2017-07-19T10:18:21.018Z,3.50
2017-07-19T10:20:48.532Z,3.53
2017-07-19T10:23:16.034Z,3.10
2017-07-19T10:25:43.568Z,3.60
2017-07-19T10:28:11.075Z,4.17
2017-07-19T10:30:39.355Z,3.83
2017-07-19T10:33:07.619Z,6.63
2017-07-19T10:35:35.131Z,5.70
2017-07-19T10:38:02.630Z,4.07
2017-07-19T10:40:30.142Z,4.30
2017-07-19T10:42:57.639Z,4.90
2017-07-19T10:45:25.146Z,4.60
2017-07-19T10:47:52.652Z,3.80
2017-07-19T10:50:20.172Z,4.03
2017-07-19T10:52:47.669Z,6.00
2017-07-19T10:55:15.183Z,3.80
2017-07-19T10:57:42.694Z,4.03
2017-07-19T11:00:10.214Z,6.00
2017-07-19T11:02:37.712Z,3.90
2017-07-19T11:05:05.215Z,3.50
2017-07-19T11:07:32.737Z,5.80
2017-07-19T11:10:01.003Z,4.63
2017-07-19T11:12:28.614Z,4.50
2017-07-19T11:14:56.108Z,5.00
2017-07-19T11:17:23.619Z,4.20
2017-07-19T11:19:51.114Z,5.17
2017-07-19T11:22:18.622Z,4.40
2017-07-19T11:24:46.131Z,4.00
2017-07-19T11:27:13.644Z,4.80
2017-07-19T11:29:41.148Z,5.97
2017-07-19T11:32:08.657Z,4.00
2017-07-19T11:34:36.156Z,6.60
2017-07-19T11:37:03.666Z,4.93
2017-07-19T11:39:31.163Z,4.57
2017-07-19T11:41:58.678Z,7.67
2017-07-19T11:44:26.173Z,6.23
2017-07-19T11:46:53.686Z,4.67
2017-07-19T11:49:21.182Z,5.27
2017-07-19T11:51:48.699Z,4.70
2017-07-19T11:54:16.195Z,4.77
2017-07-19T11:56:43.690Z,4.70
2017-07-19T11:59:11.203Z,6.60
2017-07-19T12:01:38.694Z,5.20
2017-07-19T12:04:06.211Z,5.47
2017-07-19T12:06:33.715Z,4.93
2017-07-19T12:09:01.231Z,8.33
2017-07-19T12:11:28.735Z,15.40
2017-07-19T12:13:56.251Z,12.53
2017-07-19T12:16:23.757Z,5.80
2017-07-19T12:18:51.270Z,6.97
2017-07-19T12:21:18.769Z,6.40
2017-07-19T12:23:46.283Z,5.77
2017-07-19T12:26:13.790Z,8.90
2017-07-19T12:28:41.314Z,5.77
2017-07-19T12:31:08.811Z,6.57
2017-07-19T12:33:36.329Z,6.63
2017-07-19T12:36:03.827Z,6.77
2017-07-19T12:38:31.343Z,9.53
2017-07-19T12:40:58.838Z,7.80
2017-07-19T12:43:26.356Z,6.20
2017-07-19T12:45:53.852Z,6.53
2017-07-19T12:48:21.384Z,6.17
2017-07-19T12:50:48.885Z,6.23
2017-07-19T12:53:16.386Z,8.20
2017-07-19T12:55:43.899Z,7.13
2017-07-19T12:58:11.395Z,8.30
2017-07-19T13:00:38.912Z,6.50
2017-07-19T13:03:06.406Z,6.63
2017-07-19T13:05:33.916Z,6.97
2017-07-19T13:08:01.414Z,7.30
2017-07-19T13:10:29.694Z,9.70
2017-07-19T13:12:57.197Z,6.97
2017-07-19T13:15:24.722Z,8.60
2017-07-19T13:17:52.227Z,8.50
2017-07-19T13:20:19.829Z,6.93
2017-07-19T13:22:47.360Z,6.70
2017-07-19T13:25:15.665Z,9.50
2017-07-19T13:27:43.216Z,7.43
2017-07-19T13:30:11.503Z,7.60
2017-07-19T13:32:39.002Z,9.77
2017-07-19T13:35:06.503Z,8.70
2017-07-19T13:37:34.781Z,9.03
2017-07-19T13:40:02.274Z,7.20
2017-07-19T13:42:29.791Z,8.67
2017-07-19T13:44:57.291Z,10.30
2017-07-19T13:47:24.813Z,7.37
2017-07-19T13:49:53.080Z,8.00
2017-07-19T13:52:21.378Z,7.17
2017-07-19T13:54:48.884Z,7.53
2017-07-19T13:57:16.398Z,10.80
2017-07-19T13:59:43.997Z,7.17
2017-07-19T14:02:12.292Z,6.70
2017-07-19T14:04:39.864Z,12.07
2017-07-19T14:07:08.497Z,7.40
2017-07-19T14:09:35.996Z,8.07
2017-07-19T14:12:03.526Z,8.60
2017-07-19T14:14:31.023Z,7.43
2017-07-19T14:16:58.528Z,6.97
2017-07-19T14:19:26.047Z,7.43
2017-07-19T14:21:54.314Z,7.00
2017-07-19T14:24:21.827Z,9.10
2017-07-19T14:26:49.327Z,8.00
2017-07-19T14:29:16.839Z,6.93
2017-07-19T14:31:44.339Z,7.30
2017-07-19T14:34:11.852Z,8.90
2017-07-19T14:36:39.346Z,7.07
2017-07-19T14:39:06.868Z,11.00
2017-07-19T14:41:34.367Z,7.20
2017-07-19T14:44:02.195Z,10.27
2017-07-19T14:46:29.687Z,7.87
2017-07-19T14:48:57.203Z,8.73
2017-07-19T14:51:24.702Z,9.30
2017-07-19T14:53:52.203Z,10.43
2017-07-19T14:56:19.758Z,8.07
2017-07-19T14:58:47.282Z,6.77
2017-07-19T15:01:14.800Z,10.93
2017-07-19T15:03:42.294Z,6.73
2017-07-19T15:06:09.807Z,7.13
2017-07-19T15:08:37.306Z,7.83
2017-07-19T15:11:04.819Z,6.40
2017-07-19T15:13:32.315Z,6.50
2017-07-19T15:15:59.834Z,7.40
2017-07-19T15:18:27.331Z,7.90
2017-07-19T15:20:54.847Z,8.93
2017-07-19T15:23:22.360Z,7.57
2017-07-19T15:25:49.874Z,6.93
2017-07-19T15:28:17.374Z,8.33
2017-07-19T15:30:44.886Z,7.13
2017-07-19T15:33:12.382Z,9.57
2017-07-19T15:35:39.899Z,7.77
2017-07-19T15:38:07.398Z,6.63
2017-07-19T15:40:34.911Z,6.73
2017-07-19T15:43:02.407Z,7.33
2017-07-19T15:45:29.928Z,6.97
2017-07-19T15:47:57.430Z,7.00
2017-07-19T15:50:24.929Z,7.47
2017-07-19T15:52:53.211Z,7.73
2017-07-19T15:55:21.475Z,7.83
2017-07-19T15:57:49.755Z,6.93
2017-07-19T16:00:17.292Z,9.83
2017-07-19T16:02:44.826Z,6.00
2017-07-19T16:05:12.319Z,6.83
2017-07-19T16:07:39.838Z,7.50
2017-07-19T16:10:07.334Z,7.23
2017-07-19T16:12:34.855Z,6.90
2017-07-19T16:15:02.351Z,7.03
2017-07-19T16:17:29.863Z,6.83
2017-07-19T16:19:57.362Z,7.37
2017-07-19T16:22:24.884Z,8.37
2017-07-19T16:24:52.382Z,9.00
2017-07-19T16:27:20.667Z,8.27
2017-07-19T16:29:48.940Z,6.43
2017-07-19T16:32:17.226Z,6.13
2017-07-19T16:34:45.490Z,11.83
2017-07-19T16:37:12.993Z,7.03
2017-07-19T16:39:40.504Z,6.60
2017-07-19T16:42:07.999Z,6.93
2017-07-19T16:44:35.511Z,8.10
2017-07-19T16:47:03.008Z,8.87
2017-07-19T16:49:30.530Z,9.10
2017-07-19T16:51:58.024Z,9.93
2017-07-19T16:54:25.518Z,7.37
2017-07-19T16:56:53.033Z,8.57
2017-07-19T16:59:20.538Z,7.63
2017-07-19T17:01:48.047Z,7.20
2017-07-19T17:04:16.306Z,7.63
2017-07-19T17:06:44.594Z,9.73
2017-07-19T17:09:12.860Z,7.13
2017-07-19T17:11:40.353Z,8.70
2017-07-19T17:14:07.870Z,10.40
2017-07-19T17:16:35.371Z,7.50
2017-07-19T17:19:02.882Z,9.97
2017-07-19T17:21:30.388Z,10.17
2017-07-19T17:23:57.915Z,9.40
2017-07-19T17:26:25.414Z,12.93
2017-07-19T17:28:52.915Z,8.50
2017-07-19T17:31:20.426Z,9.17
2017-07-19T17:33:47.922Z,8.73
2017-07-19T17:36:15.452Z,8.83
2017-07-19T17:38:42.955Z,11.03
2017-07-19T17:41:11.250Z,9.83
2017-07-19T17:43:38.753Z,13.40
2017-07-19T17:46:06.255Z,10.97
2017-07-19T17:48:33.766Z,14.20
2017-07-19T17:51:01.258Z,9.63
2017-07-19T17:53:28.792Z,9.37
2017-07-19T17:55:56.315Z,10.93
2017-07-19T17:58:23.841Z,11.63
2017-07-19T18:00:51.342Z,15.83
2017-07-19T18:03:18.860Z,17.37
2017-07-19T18:05:46.378Z,14.10
2017-07-19T18:08:13.874Z,11.20
2017-07-19T18:10:41.400Z,10.30
2017-07-19T18:13:08.903Z,8.70
2017-07-19T18:15:36.427Z,8.80
2017-07-19T18:18:03.927Z,10.50
2017-07-19T18:20:31.439Z,9.03
2017-07-19T18:22:58.954Z,13.60
2017-07-19T18:25:26.459Z,10.43
2017-07-19T18:27:53.976Z,12.83
2017-07-19T18:30:21.475Z,8.77
2017-07-19T18:32:49.011Z,8.90
2017-07-19T18:35:16.511Z,9.43
2017-07-19T18:37:44.770Z,8.70
2017-07-19T18:40:12.283Z,9.30
2017-07-19T18:42:39.778Z,9.13
2017-07-19T18:45:07.299Z,10.10
2017-07-19T18:47:34.808Z,12.97
2017-07-19T18:50:02.331Z,10.20
2017-07-19T18:52:29.853Z,9.37
2017-07-19T18:54:57.360Z,12.93
2017-07-19T18:57:24.881Z,9.40
2017-07-19T18:59:52.383Z,8.80
2017-07-19T19:02:19.890Z,10.67
2017-07-19T19:04:47.423Z,9.77
2017-07-19T19:07:15.702Z,8.67
2017-07-19T19:09:43.991Z,9.00
2017-07-19T19:12:12.254Z,10.73
2017-07-19T19:14:40.547Z,10.27
2017-07-19T19:17:08.056Z,8.10
2017-07-19T19:19:35.559Z,10.67
2017-07-19T19:22:03.839Z,8.70
2017-07-19T19:24:31.347Z,8.90
2017-07-19T19:26:58.862Z,8.13
2017-07-19T19:29:26.362Z,8.67
2017-07-19T19:31:53.860Z,9.43
2017-07-19T19:34:22.331Z,8.90
2017-07-19T19:36:49.830Z,8.87
2017-07-19T19:39:17.350Z,11.13
2017-07-19T19:41:45.630Z,10.77
2017-07-19T19:44:13.912Z,9.77
2017-07-19T19:46:41.439Z,15.30
2017-07-19T19:49:08.957Z,9.73
2017-07-19T19:51:36.475Z,10.90
2017-07-19T19:54:03.971Z,9.23
2017-07-19T19:56:31.494Z,9.77
2017-07-19T19:58:59.790Z,9.03
2017-07-19T20:01:27.291Z,9.47
2017-07-19T20:03:54.806Z,10.20
2017-07-19T20:06:23.071Z,10.03
2017-07-19T20:08:50.570Z,11.70
2017-07-19T20:11:18.097Z,19.37
2017-07-19T20:13:45.607Z,14.90
2017-07-19T20:16:13.128Z,12.17
2017-07-19T20:18:40.651Z,13.70
2017-07-19T20:21:08.156Z,11.00
2017-07-19T20:23:35.666Z,9.70
2017-07-19T20:26:03.166Z,9.50
2017-07-19T20:28:30.670Z,10.17
2017-07-19T20:30:58.184Z,12.37
2017-07-19T20:33:25.687Z,10.53
2017-07-19T20:35:53.305Z,11.70
2017-07-19T20:38:20.816Z,10.23
2017-07-19T20:40:48.311Z,9.80
2017-07-19T20:43:15.835Z,17.77
2017-07-19T20:45:43.336Z,21.10
2017-07-19T20:48:10.845Z,19.13
2017-07-19T20:50:38.362Z,12.60
2017-07-19T20:53:05.875Z,13.17
2017-07-19T20:55:34.159Z,10.87
2017-07-19T20:58:02.428Z,11.63
2017-07-19T21:00:30.716Z,15.13
2017-07-19T21:02:59.007Z,12.07
2017-07-19T21:05:26.549Z,13.90
2017-07-19T21:07:54.835Z,14.80
2017-07-19T21:10:22.675Z,14.17
2017-07-19T21:12:50.255Z,9.50
2017-07-19T21:15:17.804Z,15.97
2017-07-19T21:17:46.112Z,12.30
2017-07-19T21:20:13.674Z,13.30
2017-07-19T21:22:41.212Z,13.13
2017-07-19T21:25:08.770Z,13.70
2017-07-19T21:27:36.316Z,14.70
2017-07-19T21:30:04.654Z,10.93
2017-07-19T21:32:32.196Z,11.17
2017-07-19T21:34:59.736Z,15.03
2017-07-19T21:37:27.303Z,10.10
2017-07-19T21:39:54.844Z,18.47
2017-07-19T21:42:22.398Z,15.63
2017-07-19T21:44:50.701Z,14.73
2017-07-19T21:47:18.269Z,14.13
2017-07-19T21:49:45.813Z,10.93
2017-07-19T21:52:13.357Z,10.93
2017-07-19T21:54:40.916Z,16.83
2017-07-19T21:57:08.464Z,7.77
2017-07-19T21:59:36.789Z,12.10
2017-07-19T22:02:04.329Z,17.53
2017-07-19T22:04:31.885Z,9.63
2017-07-19T22:06:59.445Z,10.07
2017-07-19T22:09:27.005Z,18.73
2017-07-19T22:11:54.578Z,12.33
2017-07-19T22:14:22.125Z,12.50
2017-07-19T22:16:49.680Z,20.97
2017-07-19T22:19:17.220Z,12.40
2017-07-19T22:21:45.562Z,11.37
2017-07-19T22:24:13.109Z,10.80
2017-07-19T22:26:40.645Z,13.83
2017-07-19T22:29:08.201Z,13.73
2017-07-19T22:31:35.744Z,8.50
2017-07-19T22:34:03.301Z,8.67
2017-07-19T22:36:30.839Z,9.97
2017-07-19T22:38:59.169Z,10.13
2017-07-19T22:41:26.728Z,15.80
2017-07-19T22:43:54.273Z,10.60
2017-07-19T22:46:21.837Z,10.37
2017-07-19T22:48:49.382Z,12.30
2017-07-19T22:51:16.921Z,9.40
2017-07-19T22:53:45.249Z,5.70
2017-07-19T22:56:12.790Z,10.30
2017-07-19T22:58:40.350Z,8.47
2017-07-19T23:01:07.891Z,8.77
2017-07-19T23:03:35.437Z,10.63
2017-07-19T23:06:03.764Z,11.00
2017-07-19T23:08:31.300Z,8.40
2017-07-19T23:10:58.857Z,9.10
2017-07-19T23:13:26.389Z,8.80
2017-07-19T23:15:54.692Z,8.60
2017-07-19T23:18:22.250Z,9.63
2017-07-19T23:20:49.792Z,13.10
2017-07-19T23:23:17.353Z,11.23
2017-07-19T23:25:44.897Z,9.40
2017-07-19T23:28:13.209Z,10.37
2017-07-19T23:30:40.770Z,11.63
2017-07-19T23:33:08.314Z,7.33
2017-07-19T23:35:35.880Z,8.00
2017-07-19T23:38:03.420Z,9.10
2017-07-19T23:40:31.745Z,7.20
2017-07-19T23:42:59.318Z,11.40
2017-07-19T23:45:26.860Z,16.03
2017-07-19T23:47:54.417Z,6.80
2017-07-19T23:50:21.951Z,5.93
2017-07-19T23:52:49.498Z,5.90
2017-07-19T23:55:17.057Z,8.00
2017-07-19T23:57:44.601Z,7.03
